Kremmling, Colorado
Current Conditions -  °F | °C
As of 8:16 AM on Saturday 20 Dec 2014 (Local Time) from K20V Reporting Station
Broken Clouds Broken Clouds  
Wind Chill: 12°   Ceiling: 7500
Heat Index: 12°   Visibility: 10mi
Dew Point:   Wind: 0mph
Humidity: 85%   Direction: NA
Pressure: 30.17"   Gusts: NA
Location:  40.06°N, 106.39°W
Report Text: K20V 201516Z AUTO 00000KT 10SM SCT050 SCT060 BKN075 M11/M13 A3017 RMK AO2
Loading
Personal Weather Stations






























Interactive Weather Map New forecast layout! Learn more

10-Day Weather Forecast

Advertisements
Track Severe Weather on mobile